Time;durP1;ratioP1;P1;durP2;ratioP2;P2;SDS_P1;SDS_P2;PMS_P1;PMS_P2;Temp;Humidity;BMP_temperature;BMP_pressure;BME280_temperature;BME280_humidity;BME280_pressure;Samples;Min_cycle;Max_cycle;Signal;HPM_P1;HPM_P2
2021/09/21 00:01:15;;;;;;;17.02;14.82;;;384.90;2329.60;;;;;;5035840;28;20052;-86
2021/09/21 00:03:41;;;;;;;17.50;15.57;;;384.70;2329.60;;;;;;5035357;28;20417;-87
2021/09/21 00:06:08;;;;;;;18.67;14.38;;;384.50;2329.60;;;;;;5035828;28;20026;-84
2021/09/21 00:08:36;;;;;;;18.75;15.88;;;409.80;2355.20;;;;;;5035803;28;20385;-85
2021/09/21 00:11:07;;;;;;;21.17;15.70;;;384.70;2329.60;;;;;;5035496;28;20031;-87
2021/09/21 00:13:34;;;;;;;23.17;15.25;;;384.90;2329.60;;;;;;5019508;28;20116;-85
2021/09/21 00:16:04;;;;;;;13.90;12.40;;;384.90;2329.60;;;;;;5019228;28;20025;-87
2021/09/21 00:18:33;;;;;;;11.85;10.40;;;384.60;2329.60;;;;;;5035590;28;20030;-86
2021/09/21 00:20:59;;;;;;;10.82;8.90;;;384.60;2329.60;;;;;;5034126;28;20025;-86
2021/09/21 00:27:25;;;;;;;9.73;8.50;;;384.60;2329.60;;;;;;5023407;28;20028;-87
2021/09/21 00:29:54;;;;;;;10.07;7.63;;;384.90;2329.60;;;;;;5007080;28;20034;-85
2021/09/21 00:33:06;;;;;;;11.65;9.20;;;384.80;2329.60;;;;;;5034880;28;20531;-86
2021/09/21 00:35:34;;;;;;;10.40;9.05;;;384.60;2329.60;;;;;;4956027;28;20626;-85
2021/09/21 00:38:02;;;;;;;14.52;9.68;;;384.40;2329.60;;;;;;4974102;28;20040;-85
2021/09/21 00:40:36;;;;;;;14.23;9.82;;;384.30;2329.60;;;;;;5035934;28;20083;-85
2021/09/21 00:47:00;;;;;;;10.10;8.38;;;384.10;2329.60;;;;;;5033653;28;20116;-85
2021/09/21 00:50:27;;;;;;;;;;;;;;;;;;;;;
2021/09/21 01:07:23;;;;;;;10.93;8.07;;;384.10;2329.60;;;;;;4840702;29;20402;-86
2021/09/21 01:29:11;;;;;;;9.95;7.95;;;384.10;2329.60;;;;;;4801708;29;20094;-86
2021/09/21 01:31:48;;;;;;;9.25;8.18;;;384.30;2329.60;;;;;;4805509;29;20079;-86
2021/09/21 01:34:27;;;;;;;10.60;8.45;;;384.20;2329.60;;;;;;4893721;29;20036;-85
2021/09/21 01:59:41;;;;;;;11.70;9.32;;;384.60;2329.60;;;;;;4935662;29;20080;-84
2021/09/21 02:02:22;;;;;;;9.85;8.05;;;384.20;2329.60;;;;;;4919041;29;20122;-87
2021/09/21 02:04:50;;;;;;;10.50;9.30;;;384.00;2329.60;;;;;;4935251;29;20036;-86
2021/09/21 02:07:48;;;;;;;9.80;8.68;;;384.30;2329.60;;;;;;4919379;29;20035;-86
2021/09/21 02:10:24;;;;;;;11.93;9.52;;;384.40;2329.60;;;;;;4919400;29;20118;-87
2021/09/21 02:12:50;;;;;;;13.60;9.35;;;384.60;2329.60;;;;;;4919516;29;20027;-86
2021/09/21 02:15:20;;;;;;;13.23;9.13;;;384.50;2329.60;;;;;;4934986;29;20023;-85
2021/09/21 02:17:58;;;;;;;10.10;9.10;;;384.20;2329.60;;;;;;4947118;28;20034;-86
2021/09/21 02:20:31;;;;;;;10.02;8.98;;;384.10;2329.60;;;;;;5013907;28;20061;-86
2021/09/21 02:22:57;;;;;;;10.20;9.15;;;384.00;2329.60;;;;;;4980191;28;20494;-85
2021/09/21 02:33:18;;;;;;;9.95;7.65;;;359.20;2329.60;;;;;;4953380;29;20030;-85
2021/09/21 02:36:20;;;;;;;11.35;9.40;;;359.20;2329.60;;;;;;4844394;29;20058;-85
2021/09/21 02:45:45;;;;;;;10.65;8.93;;;358.90;2329.60;;;;;;4804230;29;20051;-86
2021/09/21 02:48:11;;;;;;;11.85;9.48;;;358.80;2329.60;;;;;;4804549;29;20050;-85
2021/09/21 02:51:28;;;;;;;11.50;9.18;;;358.90;2329.60;;;;;;4870073;29;20051;-85
2021/09/21 02:54:06;;;;;;;9.68;8.63;;;359.00;2329.60;;;;;;4876119;29;20551;-86
2021/09/21 02:56:35;;;;;;;9.70;8.35;;;384.00;2329.60;;;;;;4886143;29;20032;-88
2021/09/21 02:59:01;;;;;;;9.73;8.73;;;384.20;2329.60;;;;;;4988781;28;20033;-85
2021/09/21 03:01:27;;;;;;;11.13;8.80;;;384.00;2329.60;;;;;;5016245;28;20473;-85
2021/09/21 03:03:57;;;;;;;12.50;8.40;;;359.10;2329.60;;;;;;5016092;28;20036;-85
2021/09/21 03:06:28;;;;;;;12.40;8.85;;;384.00;2329.60;;;;;;5016083;28;20112;-87
2021/09/21 03:09:01;;;;;;;11.18;8.55;;;384.20;2329.60;;;;;;5016054;28;20577;-85
2021/09/21 03:11:29;;;;;;;12.55;8.38;;;384.40;2329.60;;;;;;5016439;28;20030;-85
2021/09/21 03:19:42;;;;;;;15.57;9.35;;;384.60;2329.60;;;;;;5037870;28;20120;-85
2021/09/21 03:22:34;;;;;;;13.43;10.00;;;384.20;2329.60;;;;;;5022051;28;20044;-86
2021/09/21 03:25:00;;;;;;;12.52;9.68;;;384.20;2329.60;;;;;;5035927;28;20389;-86
2021/09/21 03:27:26;;;;;;;13.48;9.55;;;384.00;2329.60;;;;;;5019809;28;20108;-86
2021/09/21 03:29:53;;;;;;;11.52;9.05;;;359.10;2329.60;;;;;;5025663;28;20030;-87
2021/09/21 03:32:25;;;;;;;11.43;9.15;;;359.30;2329.60;;;;;;5038548;28;20085;-88
2021/09/21 03:35:03;;;;;;;13.75;9.25;;;384.00;2329.60;;;;;;5041475;28;20029;-84
2021/09/21 03:37:31;;;;;;;10.52;8.90;;;359.30;2329.60;;;;;;5039028;28;20029;-86
2021/09/21 03:39:58;;;;;;;12.13;9.07;;;384.10;2329.60;;;;;;5019478;28;20018;-84
2021/09/21 03:42:29;;;;;;;12.05;9.48;;;384.10;2329.60;;;;;;5019860;28;20032;-86
2021/09/21 03:45:02;;;;;;;13.70;9.57;;;384.30;2329.60;;;;;;5019574;28;20033;-85
2021/09/21 03:47:31;;;;;;;12.32;10.07;;;384.30;2329.60;;;;;;5019602;28;20045;-84
2021/09/21 03:49:57;;;;;;;10.82;8.63;;;359.30;2329.60;;;;;;5019637;28;20025;-86
2021/09/21 03:52:30;;;;;;;11.35;8.90;;;359.20;2329.60;;;;;;5019863;28;20117;-86
2021/09/21 03:55:00;;;;;;;9.48;8.48;;;359.20;2329.60;;;;;;5017589;28;20037;-86
2021/09/21 03:57:32;;;;;;;11.95;8.90;;;384.00;2329.60;;;;;;5019358;28;20424;-85
2021/09/21 04:00:26;;;;;;;9.52;8.23;;;359.10;2329.60;;;;;;5019358;28;20037;-86
2021/09/21 04:06:08;;;;;;;12.48;9.00;;;359.10;2329.60;;;;;;4956857;29;20041;-86
2021/09/21 04:08:37;;;;;;;11.25;8.27;;;359.00;2329.60;;;;;;4940950;29;20046;-87
2021/09/21 04:14:31;;;;;;;;;;;;;;;;;;;;;
2021/09/21 04:20:42;;;;;;;13.93;8.00;;;359.30;2329.60;;;;;;5037115;28;20409;-87
2021/09/21 04:23:11;;;;;;;10.88;8.85;;;384.00;2329.60;;;;;;5035531;28;20516;-87
2021/09/21 04:25:39;;;;;;;15.35;8.95;;;384.20;2329.60;;;;;;5023200;28;20473;-85
2021/09/21 04:28:17;;;;;;;12.57;8.55;;;384.30;2329.60;;;;;;5035047;28;20107;-86
2021/09/21 04:30:45;;;;;;;9.85;8.70;;;384.30;2329.60;;;;;;5019013;28;20491;-87
2021/09/21 04:33:12;;;;;;;11.60;8.32;;;384.10;2329.60;;;;;;5018773;28;20026;-86
2021/09/21 04:35:40;;;;;;;13.10;8.65;;;384.20;2329.60;;;;;;5018522;28;20108;-87
2021/09/21 04:38:07;;;;;;;17.27;8.68;;;384.20;2329.60;;;;;;5018998;28;20033;-87
2021/09/21 04:40:32;;;;;;;9.50;8.48;;;384.00;2329.60;;;;;;5018626;28;20389;-87
2021/09/21 04:42:58;;;;;;;12.13;7.97;;;384.20;2329.60;;;;;;5018067;28;20025;-86
2021/09/21 04:45:24;;;;;;;13.00;9.07;;;384.10;2329.60;;;;;;5022815;28;20088;-85
2021/09/21 04:47:50;;;;;;;12.85;8.63;;;384.10;2329.60;;;;;;5029422;28;20029;-87
2021/09/21 04:50:17;;;;;;;11.80;9.18;;;384.00;2329.60;;;;;;5011082;28;20068;-86
2021/09/21 04:52:46;;;;;;;10.05;8.45;;;384.30;2329.60;;;;;;5028180;28;20031;-84
2021/09/21 04:55:12;;;;;;;17.30;9.20;;;384.20;2329.60;;;;;;5028170;28;20120;-86
2021/09/21 04:57:59;;;;;;;11.80;9.43;;;359.20;2329.60;;;;;;5045744;28;20033;-87
2021/09/21 05:00:27;;;;;;;14.02;9.35;;;359.10;2329.60;;;;;;5046219;28;20119;-85
2021/09/21 05:02:56;;;;;;;12.68;9.02;;;359.00;2329.60;;;;;;5028798;28;20034;-85
2021/09/21 05:05:33;;;;;;;11.18;8.25;;;358.90;2329.60;;;;;;5052955;28;20038;-85
2021/09/21 05:16:03;;;;;;;;;;;;;;;;;;;;;
2021/09/21 05:21:44;;;;;;;16.70;11.95;;;359.00;2329.60;;;;;;4925918;29;20049;-85
2021/09/21 05:24:13;;;;;;;11.82;9.75;;;359.20;2329.60;;;;;;5001982;28;20120;-85
2021/09/21 05:26:43;;;;;;;12.63;9.27;;;359.10;2329.60;;;;;;5039175;28;20024;-86
2021/09/21 05:29:12;;;;;;;14.50;10.48;;;359.10;2329.60;;;;;;5019146;28;20026;-87
2021/09/21 05:31:40;;;;;;;14.43;10.00;;;359.10;2329.60;;;;;;5034130;28;20030;-86
2021/09/21 05:34:06;;;;;;;13.40;10.30;;;359.20;2329.60;;;;;;5035403;28;20022;-84
2021/09/21 05:36:33;;;;;;;16.83;10.88;;;359.10;2329.60;;;;;;5017288;28;20060;-85
2021/09/21 05:38:59;;;;;;;15.60;11.95;;;359.10;2329.60;;;;;;5017163;28;20037;-84
2021/09/21 05:41:36;;;;;;;10.57;8.95;;;359.10;2329.60;;;;;;5033784;28;20029;-85
2021/09/21 05:44:03;;;;;;;12.60;9.30;;;384.00;2329.60;;;;;;5033785;28;20044;-84
2021/09/21 05:46:29;;;;;;;9.70;8.60;;;384.30;2329.60;;;;;;5016716;28;20025;-83
2021/09/21 05:48:59;;;;;;;10.70;9.50;;;384.40;2329.60;;;;;;5017156;28;20484;-86
2021/09/21 05:51:26;;;;;;;14.05;10.82;;;384.40;2329.60;;;;;;5017231;28;20029;-84
2021/09/21 05:53:53;;;;;;;14.77;10.35;;;384.40;2329.60;;;;;;5033789;28;20120;-85
2021/09/21 05:56:19;;;;;;;14.15;10.68;;;384.10;2329.60;;;;;;5033549;28;20374;-85
2021/09/21 05:58:45;;;;;;;16.15;10.70;;;359.00;2329.60;;;;;;5033414;28;20026;-85
2021/09/21 06:01:12;;;;;;;13.43;10.10;;;384.10;2329.60;;;;;;5033159;28;20465;-84
2021/09/21 06:03:38;;;;;;;16.10;11.13;;;384.20;2329.60;;;;;;5033115;28;20032;-84
2021/09/21 06:06:04;;;;;;;12.20;9.73;;;384.10;2329.60;;;;;;5033352;28;20022;-84
2021/09/21 06:08:35;;;;;;;13.40;10.27;;;384.20;2329.60;;;;;;5033448;28;20104;-84
2021/09/21 06:11:06;;;;;;;13.35;9.50;;;384.50;2329.60;;;;;;5033377;28;20564;-86
2021/09/21 06:13:32;;;;;;;11.30;9.70;;;384.50;2329.60;;;;;;5032968;28;20458;-85
2021/09/21 06:15:58;;;;;;;10.48;8.63;;;384.60;2329.60;;;;;;5016544;28;20535;-86
2021/09/21 06:18:24;;;;;;;12.52;8.93;;;384.60;2329.60;;;;;;5016530;28;20033;-86
2021/09/21 06:20:50;;;;;;;10.82;8.35;;;384.50;2329.60;;;;;;5016428;28;20362;-86
2021/09/21 06:23:18;;;;;;;11.90;8.65;;;384.60;2329.60;;;;;;5016586;28;20122;-85
2021/09/21 06:25:44;;;;;;;9.65;8.63;;;384.60;2329.60;;;;;;5016711;28;20037;-86
2021/09/21 06:28:10;;;;;;;14.15;9.35;;;384.60;2329.60;;;;;;5016430;28;20032;-85
2021/09/21 06:30:36;;;;;;;8.85;7.95;;;384.60;2329.60;;;;;;5016798;28;20028;-85
2021/09/21 06:33:03;;;;;;;9.82;8.50;;;384.70;2329.60;;;;;;5016980;28;20462;-85
2021/09/21 06:35:35;;;;;;;9.75;8.27;;;384.60;2329.60;;;;;;5016518;28;20064;-87
2021/09/21 06:38:01;;;;;;;11.90;8.85;;;384.60;2329.60;;;;;;5033373;28;20026;-86
2021/09/21 06:40:27;;;;;;;11.85;9.77;;;384.60;2329.60;;;;;;5016803;28;20124;-85
2021/09/21 06:43:13;;;;;;;9.90;8.07;;;384.50;2329.60;;;;;;5023911;28;20022;-86
2021/09/21 06:45:55;;;;;;;;;;;;;;;;;;;;;
2021/09/21 06:49:17;;;;;;;;;;;;;;;;;;;;;
2021/09/21 06:51:22;;;;;;;11.27;8.27;;;384.30;2329.60;;;;;;5023353;28;20390;-84
2021/09/21 06:54:11;;;;;;;11.63;8.90;;;384.40;2329.60;;;;;;5046582;28;20500;-86
2021/09/21 06:56:40;;;;;;;9.45;8.15;;;384.50;2329.60;;;;;;5036852;28;20060;-87
2021/09/21 06:59:06;;;;;;;8.23;6.68;;;384.60;2329.60;;;;;;5032840;28;20024;-85
2021/09/21 07:01:32;;;;;;;12.98;7.28;;;384.60;2329.60;;;;;;5034375;28;20018;-88
2021/09/21 07:03:58;;;;;;;12.77;8.43;;;384.60;2329.60;;;;;;5032713;28;20036;-86
2021/09/21 07:06:24;;;;;;;10.35;7.97;;;384.80;2329.60;;;;;;5015952;28;20025;-87
2021/09/21 07:09:00;;;;;;;10.38;8.30;;;384.60;2329.60;;;;;;5016170;28;20025;-86
2021/09/21 07:11:29;;;;;;;12.57;8.98;;;384.50;2329.60;;;;;;5032451;28;20026;-86
2021/09/21 07:13:55;;;;;;;11.30;8.40;;;384.50;2329.60;;;;;;5032599;28;20374;-86
2021/09/21 07:16:29;;;;;;;10.38;7.57;;;384.60;2329.60;;;;;;5032840;28;20116;-85
2021/09/21 07:18:55;;;;;;;14.15;8.45;;;384.50;2329.60;;;;;;5033190;28;20045;-86
2021/09/21 07:21:24;;;;;;;12.75;8.43;;;384.20;2329.60;;;;;;5032612;28;20032;-85
2021/09/21 07:23:53;;;;;;;13.05;9.05;;;384.50;2329.60;;;;;;5015943;28;20037;-85
2021/09/21 07:26:28;;;;;;;11.85;8.98;;;384.80;2329.60;;;;;;5033143;28;20543;-87
2021/09/21 07:28:54;;;;;;;10.88;8.48;;;384.90;2329.60;;;;;;5016220;28;20029;-85
2021/09/21 07:31:20;;;;;;;13.73;9.10;;;409.60;2355.20;;;;;;5016133;28;20026;-86
2021/09/21 07:33:47;;;;;;;12.00;8.98;;;409.60;2355.20;;;;;;5016193;28;20021;-86
2021/09/21 07:36:14;;;;;;;16.42;8.25;;;409.70;2355.20;;;;;;5016431;28;20017;-87
2021/09/21 07:38:41;;;;;;;9.05;7.25;;;409.60;2355.20;;;;;;5016122;28;20536;-86
2021/09/21 07:41:07;;;;;;;14.23;8.52;;;384.80;2329.60;;;;;;5032639;28;20030;-86
2021/09/21 07:43:33;;;;;;;11.10;7.40;;;409.90;2355.20;;;;;;5032265;28;20026;-85
2021/09/21 07:46:25;;;;;;;8.98;7.68;;;384.50;2329.60;;;;;;5015844;28;20026;-87
2021/09/21 07:49:17;;;;;;;10.10;7.70;;;384.70;2329.60;;;;;;5031000;28;20045;-87
2021/09/21 07:51:44;;;;;;;10.27;7.90;;;384.90;2329.60;;;;;;5015786;28;20025;-86
2021/09/21 07:54:33;;;;;;;9.80;7.68;;;409.60;2355.20;;;;;;5015646;28;20033;-89
2021/09/21 07:56:59;;;;;;;13.48;7.75;;;409.70;2355.20;;;;;;5013183;28;20033;-88
2021/09/21 07:59:26;;;;;;;13.68;7.85;;;409.70;2355.20;;;;;;5036366;28;20029;-87
2021/09/21 08:01:52;;;;;;;11.25;7.95;;;409.70;2355.20;;;;;;5020160;28;20028;-86
2021/09/21 08:04:18;;;;;;;11.90;8.35;;;409.60;2355.20;;;;;;5019306;28;20034;-85
2021/09/21 08:06:44;;;;;;;12.45;7.47;;;409.70;2355.20;;;;;;5019333;28;20056;-86
2021/09/21 08:09:10;;;;;;;12.13;7.60;;;409.60;2355.20;;;;;;5019687;28;20021;-87
2021/09/21 08:11:36;;;;;;;10.35;7.15;;;409.60;2355.20;;;;;;5036016;28;20052;-86
2021/09/21 08:14:06;;;;;;;15.70;8.25;;;410.40;2355.20;;;;;;5027010;28;20025;-86
2021/09/21 08:16:38;;;;;;;9.73;8.30;;;409.60;2355.20;;;;;;5055423;28;20033;-87
2021/09/21 08:19:21;;;;;;;12.70;8.90;;;409.90;2355.20;;;;;;5057122;28;20021;-87
2021/09/21 08:21:47;;;;;;;9.43;8.23;;;410.00;2355.20;;;;;;5059139;28;20544;-88
2021/09/21 08:24:14;;;;;;;9.85;7.60;;;410.20;2355.20;;;;;;5059084;28;20025;-87
2021/09/21 08:26:40;;;;;;;12.02;8.30;;;410.00;2355.20;;;;;;5058918;28;20025;-87
2021/09/21 08:29:06;;;;;;;12.50;8.73;;;409.70;2355.20;;;;;;5058978;28;20020;-87
2021/09/21 08:31:32;;;;;;;14.43;8.15;;;410.00;2355.20;;;;;;5058783;28;20021;-88
2021/09/21 08:34:00;;;;;;;9.60;8.20;;;410.20;2355.20;;;;;;5058902;28;20021;-89
2021/09/21 08:36:26;;;;;;;10.15;8.20;;;410.20;2355.20;;;;;;5048079;28;20025;-89
2021/09/21 08:38:55;;;;;;;12.90;8.50;;;410.30;2355.20;;;;;;5038876;28;20117;-88
2021/09/21 08:41:21;;;;;;;11.18;8.52;;;410.30;2355.20;;;;;;5038937;28;20021;-89
2021/09/21 08:43:47;;;;;;;12.13;9.05;;;410.30;2355.20;;;;;;5040492;28;20508;-87
2021/09/21 08:46:13;;;;;;;12.43;8.82;;;410.30;2355.20;;;;;;5042288;28;20033;-87
2021/09/21 08:48:39;;;;;;;11.18;9.63;;;410.40;2355.20;;;;;;5050064;28;20041;-88
2021/09/21 08:51:05;;;;;;;12.57;8.40;;;410.00;2355.20;;;;;;5054376;28;20388;-87
2021/09/21 08:53:31;;;;;;;10.95;8.48;;;410.50;2355.20;;;;;;5051511;28;20115;-88
2021/09/21 08:55:57;;;;;;;11.98;8.15;;;410.50;2355.20;;;;;;5049670;28;20026;-86
2021/09/21 08:58:25;;;;;;;13.57;8.90;;;410.50;2355.20;;;;;;5050844;28;20124;-87
2021/09/21 09:00:51;;;;;;;14.45;9.73;;;435.50;2355.20;;;;;;5043912;28;20024;-86
2021/09/21 09:03:17;;;;;;;14.82;9.10;;;435.30;2355.20;;;;;;5048115;28;20026;-87
2021/09/21 09:05:46;;;;;;;10.75;9.07;;;435.30;2355.20;;;;;;5065632;28;20063;-88
2021/09/21 09:08:13;;;;;;;18.00;9.88;;;435.30;2355.20;;;;;;5038143;28;20048;-87
2021/09/21 09:10:39;;;;;;;14.70;9.48;;;435.30;2355.20;;;;;;5037655;28;20488;-87
2021/09/21 09:13:17;;;;;;;15.45;10.68;;;435.50;2355.20;;;;;;5037735;28;20031;-86
2021/09/21 09:15:52;;;;;;;13.27;10.95;;;435.60;2355.20;;;;;;5033527;28;20060;-89
2021/09/21 09:18:27;;;;;;;11.82;9.60;;;435.60;2355.20;;;;;;5033366;28;20028;-87
2021/09/21 09:20:54;;;;;;;13.38;8.32;;;435.60;2355.20;;;;;;5037626;28;20040;-86
2021/09/21 09:23:20;;;;;;;10.60;8.57;;;435.50;2355.20;;;;;;5037483;28;20044;-86
2021/09/21 09:25:48;;;;;;;11.90;8.73;;;435.40;2355.20;;;;;;5037453;28;20124;-88
2021/09/21 09:28:28;;;;;;;9.95;8.13;;;435.30;2355.20;;;;;;5037064;28;20035;-89
2021/09/21 09:30:56;;;;;;;12.27;8.02;;;435.30;2355.20;;;;;;5037212;28;20029;-86
2021/09/21 09:33:23;;;;;;;13.48;8.63;;;435.50;2355.20;;;;;;5037825;28;20102;-87
2021/09/21 09:35:50;;;;;;;13.55;8.32;;;435.60;2355.20;;;;;;5055896;28;20025;-88
2021/09/21 09:38:24;;;;;;;13.75;9.35;;;435.60;2355.20;;;;;;5037285;28;20029;-88
2021/09/21 09:40:59;;;;;;;10.73;8.63;;;435.60;2355.20;;;;;;5027412;28;20048;-88
2021/09/21 09:43:26;;;;;;;11.05;7.90;;;435.70;2355.20;;;;;;5018589;28;20032;-86
2021/09/21 09:45:54;;;;;;;10.02;7.85;;;435.90;2355.20;;;;;;5019933;28;20390;-86
2021/09/21 09:48:25;;;;;;;10.10;8.23;;;435.90;2355.20;;;;;;5035815;28;20052;-87
2021/09/21 09:50:54;;;;;;;11.20;8.27;;;435.60;2355.20;;;;;;5046484;28;20025;-86
2021/09/21 09:53:27;;;;;;;8.88;7.40;;;435.50;2355.20;;;;;;5054521;28;20037;-85
2021/09/21 09:55:58;;;;;;;12.65;7.50;;;435.60;2355.20;;;;;;5073050;28;20035;-87
2021/09/21 09:58:25;;;;;;;12.18;8.48;;;435.50;2355.20;;;;;;5073233;28;20085;-86
2021/09/21 10:00:54;;;;;;;10.70;8.40;;;435.70;2355.20;;;;;;5072685;28;20490;-87
2021/09/21 10:03:21;;;;;;;12.48;8.77;;;435.80;2355.20;;;;;;5056472;28;20021;-86
2021/09/21 10:05:50;;;;;;;10.38;7.38;;;435.90;2355.20;;;;;;5055788;28;20032;-86
2021/09/21 10:08:16;;;;;;;13.88;8.00;;;435.90;2355.20;;;;;;5056048;28;20020;-85
2021/09/21 10:10:42;;;;;;;12.48;10.18;;;436.10;2355.20;;;;;;5056166;28;20361;-85
2021/09/21 10:13:14;;;;;;;12.90;9.25;;;436.10;2355.20;;;;;;5056121;28;20029;-86
2021/09/21 10:15:41;;;;;;;11.23;8.02;;;436.00;2355.20;;;;;;5073780;28;20050;-84
2021/09/21 10:18:23;;;;;;;11.18;7.53;;;460.80;2380.80;;;;;;5055882;28;20032;-86
2021/09/21 10:21:03;;;;;;;14.82;8.00;;;460.90;2380.80;;;;;;5056089;28;20029;-86
2021/09/21 10:23:34;;;;;;;8.55;7.05;;;461.00;2380.80;;;;;;5055837;28;20024;-86
2021/09/21 10:26:17;;;;;;;11.85;7.18;;;461.00;2380.80;;;;;;5056905;28;20055;-88
2021/09/21 10:28:49;;;;;;;8.20;6.95;;;461.10;2380.80;;;;;;5056301;28;20028;-86
2021/09/21 10:31:18;;;;;;;8.82;7.03;;;461.00;2380.80;;;;;;5074294;28;20025;-85
2021/09/21 10:33:45;;;;;;;11.43;7.60;;;461.10;2380.80;;;;;;5056744;28;20033;-85
2021/09/21 10:36:29;;;;;;;12.50;7.60;;;461.10;2380.80;;;;;;5055064;28;20026;-85
2021/09/21 10:38:58;;;;;;;11.55;6.70;;;461.20;2380.80;;;;;;5052921;28;20036;-85
2021/09/21 10:41:26;;;;;;;21.60;8.85;;;461.40;2380.80;;;;;;5053255;28;20039;-83
2021/09/21 10:44:18;;;;;;;10.88;6.95;;;461.50;2380.80;;;;;;5052983;28;20102;-83
2021/09/21 10:46:57;;;;;;;14.10;7.53;;;461.40;2380.80;;;;;;5031897;28;20037;-84
2021/09/21 10:49:27;;;;;;;8.13;6.00;;;461.50;2380.80;;;;;;5053249;28;20047;-84
2021/09/21 10:51:57;;;;;;;10.05;6.65;;;461.50;2380.80;;;;;;5052758;28;20380;-83
2021/09/21 10:54:54;;;;;;;15.20;6.28;;;461.40;2380.80;;;;;;5053961;28;20460;-82
2021/09/21 10:57:40;;;;;;;11.77;6.72;;;461.40;2380.80;;;;;;5019716;28;20029;-82
2021/09/21 11:00:11;;;;;;;10.10;6.82;;;461.60;2380.80;;;;;;5058413;28;20029;-84
2021/09/21 11:02:43;;;;;;;12.73;7.18;;;461.60;2380.80;;;;;;5057024;28;20033;-82
2021/09/21 11:05:16;;;;;;;10.05;7.13;;;461.50;2380.80;;;;;;5040592;28;20037;-82
2021/09/21 11:07:54;;;;;;;13.68;7.18;;;461.50;2380.80;;;;;;5057089;28;20029;-84
2021/09/21 11:10:27;;;;;;;11.23;6.88;;;461.30;2380.80;;;;;;5052356;28;20090;-85
2021/09/21 11:12:52;;;;;;;10.27;6.70;;;461.40;2380.80;;;;;;5053004;28;20070;-86
2021/09/21 11:15:22;;;;;;;7.05;5.90;;;461.60;2380.80;;;;;;5052930;28;20037;-87
2021/09/21 11:17:52;;;;;;;8.25;6.15;;;486.40;2380.80;;;;;;5052501;28;20094;-83
2021/09/21 11:20:18;;;;;;;7.65;5.63;;;461.70;2380.80;;;;;;5036160;28;20029;-84
2021/09/21 11:22:50;;;;;;;9.35;6.35;;;486.40;2380.80;;;;;;5036146;28;20028;-85
2021/09/21 11:25:16;;;;;;;7.22;5.70;;;486.70;2380.80;;;;;;5052858;28;20108;-84
2021/09/21 11:27:42;;;;;;;8.27;5.10;;;486.70;2380.80;;;;;;5036313;28;20025;-85
2021/09/21 11:30:13;;;;;;;6.55;5.55;;;486.70;2380.80;;;;;;5035778;28;20032;-86
2021/09/21 11:32:40;;;;;;;8.10;5.60;;;486.60;2380.80;;;;;;5037418;28;20032;-86
2021/09/21 11:35:10;;;;;;;7.28;5.70;;;486.70;2380.80;;;;;;5034818;28;20429;-86
2021/09/21 11:37:36;;;;;;;7.88;5.30;;;486.80;2380.80;;;;;;5041823;28;20027;-85
2021/09/21 11:40:04;;;;;;;6.35;5.60;;;487.00;2380.80;;;;;;5045982;28;20089;-85
2021/09/21 11:42:32;;;;;;;7.57;5.72;;;487.00;2380.80;;;;;;5062762;28;20036;-85
2021/09/21 11:45:11;;;;;;;10.32;6.45;;;487.20;2380.80;;;;;;5050828;28;20056;-85
2021/09/21 11:47:42;;;;;;;6.65;5.38;;;512.30;2380.80;;;;;;5054078;28;20044;-84
2021/09/21 11:50:16;;;;;;;5.78;4.57;;;512.10;2380.80;;;;;;5059646;28;20025;-84
2021/09/21 11:52:56;;;;;;;6.03;5.30;;;512.00;2380.80;;;;;;5038183;28;20028;-88
2021/09/21 11:55:25;;;;;;;6.05;5.00;;;487.30;2380.80;;;;;;5054785;28;20063;-85
2021/09/21 11:57:52;;;;;;;8.90;5.72;;;487.30;2380.80;;;;;;5055050;28;20021;-84
2021/09/21 12:00:24;;;;;;;8.77;5.10;;;512.90;2380.80;;;;;;5050003;28;20035;-87
2021/09/21 12:03:02;;;;;;;7.70;5.55;;;512.10;2380.80;;;;;;5046041;28;20036;-85
2021/09/21 12:05:30;;;;;;;6.38;5.53;;;512.10;2380.80;;;;;;5067299;28;20033;-84
2021/09/21 12:07:59;;;;;;;6.80;5.57;;;512.20;2380.80;;;;;;5049253;28;20025;-85
2021/09/21 12:10:27;;;;;;;7.10;5.53;;;512.20;2380.80;;;;;;5055687;28;20092;-85
2021/09/21 12:13:04;;;;;;;9.70;6.38;;;512.20;2380.80;;;;;;5050056;28;20028;-87
2021/09/21 12:15:31;;;;;;;8.68;6.18;;;512.20;2380.80;;;;;;5042896;28;20445;-85
2021/09/21 12:17:58;;;;;;;6.43;5.25;;;512.00;2380.80;;;;;;5041322;28;20045;-82
2021/09/21 12:20:26;;;;;;;10.63;6.00;;;512.00;2380.80;;;;;;5043435;28;20030;-83
2021/09/21 12:22:53;;;;;;;7.32;5.72;;;512.20;2380.80;;;;;;5049442;28;20083;-81
2021/09/21 12:25:21;;;;;;;7.13;5.32;;;512.40;2380.80;;;;;;5050791;28;20038;-81
2021/09/21 12:27:55;;;;;;;8.75;6.35;;;512.50;2380.80;;;;;;5043764;28;20125;-81
2021/09/21 12:30:26;;;;;;;10.23;5.93;;;512.20;2380.80;;;;;;5048967;28;20031;-81
2021/09/21 12:33:01;;;;;;;7.47;6.20;;;512.60;2380.80;;;;;;5045328;28;20030;-82
2021/09/21 12:35:32;;;;;;;9.85;6.25;;;512.80;2380.80;;;;;;5028663;28;20056;-81
2021/09/21 12:38:05;;;;;;;9.10;6.30;;;512.90;2380.80;;;;;;5039742;28;20033;-81
2021/09/21 12:40:31;;;;;;;8.30;6.20;;;537.60;2406.40;;;;;;5039314;28;20025;-83
2021/09/21 12:43:02;;;;;;;7.75;6.13;;;538.00;2406.40;;;;;;5042557;28;20442;-83
2021/09/21 12:45:28;;;;;;;8.50;5.90;;;537.90;2406.40;;;;;;5037987;28;20037;-82
2021/09/21 12:47:54;;;;;;;6.53;5.35;;;537.60;2406.40;;;;;;5040225;28;20052;-85
2021/09/21 12:50:21;;;;;;;7.35;5.43;;;512.90;2380.80;;;;;;5053843;28;20036;-83
2021/09/21 12:52:51;;;;;;;8.43;5.65;;;512.90;2380.80;;;;;;5050806;28;20362;-83
2021/09/21 12:55:36;;;;;;;8.32;6.35;;;512.60;2380.80;;;;;;5056690;28;20048;-82
2021/09/21 12:58:03;;;;;;;8.15;5.90;;;512.80;2380.80;;;;;;5057976;28;20473;-82
2021/09/21 13:00:35;;;;;;;9.00;5.53;;;512.60;2380.80;;;;;;5058196;28;20029;-82
2021/09/21 13:03:01;;;;;;;8.70;6.13;;;512.50;2380.80;;;;;;5059764;28;20028;-82
2021/09/21 13:05:27;;;;;;;7.10;6.00;;;512.40;2380.80;;;;;;5057246;28;20032;-82
2021/09/21 13:07:53;;;;;;;9.48;6.57;;;512.30;2380.80;;;;;;5057671;28;20029;-82
2021/09/21 13:10:19;;;;;;;7.68;5.80;;;512.10;2380.80;;;;;;5056861;28;20021;-82
2021/09/21 13:12:53;;;;;;;7.70;6.30;;;512.10;2380.80;;;;;;5056896;28;20444;-82
2021/09/21 13:15:19;;;;;;;7.13;6.00;;;512.00;2380.80;;;;;;5074927;28;20056;-83
2021/09/21 13:17:45;;;;;;;7.50;6.43;;;487.20;2380.80;;;;;;5056848;28;20468;-82
2021/09/21 13:20:11;;;;;;;6.75;5.70;;;487.20;2380.80;;;;;;5055470;28;20074;-79
2021/09/21 13:22:37;;;;;;;9.20;6.78;;;512.10;2380.80;;;;;;5051906;28;20036;-82
2021/09/21 13:25:03;;;;;;;10.65;8.05;;;487.10;2380.80;;;;;;5061773;28;20037;-83
2021/09/21 13:27:29;;;;;;;7.88;6.55;;;487.10;2380.80;;;;;;5037248;28;20029;-83
2021/09/21 13:29:55;;;;;;;7.95;6.65;;;487.10;2380.80;;;;;;5055395;28;20382;-83
2021/09/21 13:32:20;;;;;;;10.85;6.68;;;487.00;2380.80;;;;;;5052963;28;20025;-84
2021/09/21 13:34:46;;;;;;;12.43;6.88;;;487.00;2380.80;;;;;;5052809;28;20083;-82
2021/09/21 13:37:12;;;;;;;8.50;7.57;;;487.00;2380.80;;;;;;5053600;28;20027;-84
2021/09/21 13:39:38;;;;;;;12.15;8.40;;;487.00;2380.80;;;;;;5053404;28;20434;-82
2021/09/21 13:42:04;;;;;;;8.27;7.47;;;487.10;2380.80;;;;;;5050860;28;20520;-82
2021/09/21 13:44:30;;;;;;;11.88;8.40;;;487.00;2380.80;;;;;;5039264;28;20028;-84
2021/09/21 13:46:56;;;;;;;11.60;9.23;;;487.00;2380.80;;;;;;5054317;28;20017;-83
2021/09/21 13:49:22;;;;;;;13.95;10.75;;;487.00;2380.80;;;;;;5033452;28;20431;-83
2021/09/21 13:51:48;;;;;;;12.63;11.20;;;487.00;2380.80;;;;;;5025929;28;20033;-82
2021/09/21 13:54:14;;;;;;;15.93;10.38;;;486.90;2380.80;;;;;;5027793;28;20524;-83
2021/09/21 13:56:39;;;;;;;15.32;11.40;;;486.90;2380.80;;;;;;5024087;28;20029;-81
2021/09/21 13:59:05;;;;;;;13.45;10.80;;;486.90;2380.80;;;;;;5030640;28;20029;-82
2021/09/21 14:01:31;;;;;;;12.60;10.68;;;486.90;2380.80;;;;;;5014385;28;20040;-81
2021/09/21 14:03:57;;;;;;;15.57;12.43;;;486.90;2380.80;;;;;;5036629;28;20044;-80
2021/09/21 14:06:23;;;;;;;17.23;13.18;;;486.80;2380.80;;;;;;5027174;28;20059;-80
2021/09/21 14:08:48;;;;;;;13.98;12.48;;;486.80;2380.80;;;;;;5032738;28;20057;-81
2021/09/21 14:11:14;;;;;;;16.35;13.50;;;486.70;2380.80;;;;;;5035274;28;20071;-81
2021/09/21 14:13:40;;;;;;;13.80;12.10;;;486.60;2380.80;;;;;;5035183;28;20483;-81
2021/09/21 14:16:06;;;;;;;14.80;13.30;;;486.50;2380.80;;;;;;5028014;28;20021;-82
2021/09/21 14:18:32;;;;;;;18.10;15.02;;;486.50;2380.80;;;;;;5022116;28;20034;-82